createdAt,value
2022-11-27T00:01:16.192Z,90060.41
2022-11-27T00:03:43.599Z,90064.25
2022-11-27T00:06:21.927Z,90077.00
2022-11-27T00:08:49.123Z,90080.00
2022-11-27T00:11:18.623Z,90078.72
2022-11-27T00:13:46.347Z,90078.59
2022-11-27T00:16:14.494Z,90074.09
2022-11-27T00:18:41.950Z,90077.47
2022-11-27T00:21:15.365Z,90073.88
2022-11-27T00:23:44.491Z,90070.19
2022-11-27T00:26:11.661Z,90066.00
2022-11-27T00:28:38.629Z,90072.09
2022-11-27T00:31:12.749Z,90071.84
2022-11-27T00:33:39.857Z,90069.94
2022-11-27T00:36:08.372Z,90069.78
2022-11-27T00:38:38.946Z,90076.00
2022-11-27T00:41:11.234Z,90074.97
2022-11-27T00:43:44.166Z,90076.06
2022-11-27T00:46:13.873Z,90086.38
2022-11-27T00:48:41.637Z,90078.00
2022-11-27T00:51:11.847Z,90091.75
2022-11-27T00:53:39.087Z,90073.88
2022-11-27T00:56:06.991Z,90075.31
2022-11-27T00:58:34.495Z,90076.59
2022-11-27T01:01:04.316Z,90069.72
2022-11-27T01:03:32.090Z,90071.63
2022-11-27T01:06:06.956Z,90076.09
2022-11-27T01:08:34.651Z,90071.34
2022-11-27T01:11:02.117Z,90067.16
2022-11-27T01:13:32.029Z,90072.34
2022-11-27T01:16:08.791Z,90073.28
2022-11-27T01:18:37.101Z,90068.91
2022-11-27T01:21:04.548Z,90065.59
2022-11-27T01:23:32.431Z,90062.31
2022-11-27T01:26:05.109Z,90066.41
2022-11-27T01:28:32.708Z,90063.63
2022-11-27T01:31:03.980Z,90069.56
2022-11-27T01:33:30.946Z,90063.22
2022-11-27T01:35:59.620Z,90067.38
2022-11-27T01:38:27.405Z,90075.97
2022-11-27T01:41:02.970Z,90069.78
2022-11-27T01:44:03.588Z,90072.66
2022-11-27T01:46:38.800Z,90066.50
2022-11-27T01:49:11.458Z,90065.94
2022-11-27T01:51:52.220Z,90062.69
2022-11-27T01:54:21.364Z,90074.84
2022-11-27T01:56:52.489Z,90065.84
2022-11-27T01:59:21.394Z,90069.72
2022-11-27T02:01:48.409Z,90070.56
2022-11-27T02:04:15.482Z,90071.25
2022-11-27T02:06:42.361Z,90073.88
2022-11-27T02:09:09.379Z,90082.09
2022-11-27T02:11:58.448Z,90074.31
2022-11-27T02:14:40.549Z,90085.31
2022-11-27T02:17:32.544Z,90080.25
2022-11-27T02:20:35.065Z,90082.44
2022-11-27T02:23:23.208Z,90090.47
2022-11-27T02:26:08.294Z,90086.41
2022-11-27T02:28:56.921Z,90076.81
2022-11-27T02:31:54.209Z,90080.00
2022-11-27T02:34:54.492Z,90078.13
2022-11-27T02:37:33.128Z,90085.13
2022-11-27T02:40:06.309Z,90080.97
2022-11-27T02:42:40.847Z,90084.06
2022-11-27T02:45:14.659Z,90083.25
2022-11-27T02:47:45.203Z,90086.78
2022-11-27T02:50:19.897Z,90091.22
2022-11-27T02:52:49.822Z,90081.00
2022-11-27T02:55:22.181Z,90074.47
2022-11-27T02:57:52.125Z,90084.13
2022-11-27T03:00:19.577Z,90092.34
2022-11-27T03:02:53.288Z,90084.53
2022-11-27T03:05:22.999Z,90082.66
2022-11-27T03:08:07.990Z,90082.66
2022-11-27T03:10:52.608Z,90083.03
2022-11-27T03:13:19.592Z,90095.16
2022-11-27T03:15:59.791Z,90090.81
2022-11-27T03:18:44.258Z,90090.03
2022-11-27T03:21:25.546Z,90097.91
2022-11-27T03:23:52.633Z,90083.06
2022-11-27T03:26:19.546Z,90079.59
2022-11-27T03:28:47.721Z,90098.75
2022-11-27T03:31:15.187Z,90094.38
2022-11-27T03:33:42.334Z,90091.97
2022-11-27T03:36:18.354Z,90104.34
2022-11-27T03:38:47.137Z,90095.28
2022-11-27T03:41:44.820Z,90096.38
2022-11-27T03:44:40.785Z,90092.84
2022-11-27T03:47:16.928Z,90098.44
2022-11-27T03:49:55.851Z,90093.91
2022-11-27T03:52:43.827Z,90092.84
2022-11-27T03:55:33.076Z,90082.88
2022-11-27T03:58:12.773Z,90092.41
2022-11-27T04:00:44.366Z,90084.53
2022-11-27T04:03:13.649Z,90086.56
2022-11-27T04:05:40.718Z,90080.69
2022-11-27T04:08:07.660Z,90086.63
2022-11-27T04:10:44.548Z,90089.66
2022-11-27T04:13:11.666Z,90085.22
2022-11-27T04:15:38.993Z,90085.75
2022-11-27T04:18:06.081Z,90081.03
2022-11-27T04:20:33.222Z,90080.41
2022-11-27T04:22:59.980Z,90080.63
2022-11-27T04:25:27.107Z,90077.66
2022-11-27T04:27:54.167Z,90080.63
2022-11-27T04:30:21.102Z,90083.31
2022-11-27T04:32:48.058Z,90085.97
2022-11-27T04:35:15.000Z,90087.09
2022-11-27T04:37:41.945Z,90094.16
2022-11-27T04:40:09.395Z,90095.44
2022-11-27T04:42:36.261Z,90089.25
2022-11-27T04:45:03.243Z,90093.31
2022-11-27T04:47:30.079Z,90090.88
2022-11-27T04:49:56.974Z,90098.47
2022-11-27T04:52:23.832Z,90091.41
2022-11-27T04:54:54.204Z,90096.78
2022-11-27T04:57:23.867Z,90094.16
2022-11-27T04:59:50.767Z,90100.13
2022-11-27T05:02:17.660Z,90107.81
2022-11-27T05:04:44.548Z,90101.75
2022-11-27T05:07:11.757Z,90089.91
2022-11-27T05:09:38.633Z,90095.13
2022-11-27T05:12:05.958Z,90100.06
2022-11-27T05:14:32.989Z,90094.16
2022-11-27T05:17:00.956Z,90100.78
2022-11-27T05:19:30.625Z,90098.28
2022-11-27T05:21:57.844Z,90106.88
2022-11-27T05:24:27.014Z,90110.09
2022-11-27T05:26:54.784Z,90110.69
2022-11-27T05:29:22.262Z,90115.84
2022-11-27T05:31:49.453Z,90111.44
2022-11-27T05:34:16.443Z,90114.88
2022-11-27T05:36:43.738Z,90119.53
2022-11-27T05:39:11.513Z,90115.00
2022-11-27T05:41:40.823Z,90113.25
2022-11-27T05:44:16.932Z,90114.59
2022-11-27T05:46:43.987Z,90114.50
2022-11-27T05:49:13.627Z,90113.94
2022-11-27T05:51:40.672Z,90122.41
2022-11-27T05:54:07.894Z,90110.97
2022-11-27T05:56:34.919Z,90114.44
2022-11-27T05:59:04.685Z,90125.13
2022-11-27T06:01:33.895Z,90116.88
2022-11-27T06:04:01.329Z,90120.03
2022-11-27T06:06:30.847Z,90118.47
2022-11-27T06:08:57.699Z,90125.06
2022-11-27T06:11:24.631Z,90124.63
2022-11-27T06:13:51.569Z,90123.88
2022-11-27T06:16:21.628Z,90120.16
2022-11-27T06:18:56.168Z,90135.97
2022-11-27T06:21:25.950Z,90133.63
2022-11-27T06:23:56.583Z,90132.38
2022-11-27T06:26:26.965Z,90135.59
2022-11-27T06:28:58.254Z,90135.94
2022-11-27T06:31:31.239Z,90141.50
2022-11-27T06:34:01.494Z,90147.97
2022-11-27T06:36:37.097Z,90145.63
2022-11-27T06:39:07.872Z,90145.03
2022-11-27T06:41:34.874Z,90149.25
2022-11-27T06:44:04.743Z,90147.31
2022-11-27T06:46:31.712Z,90147.66
2022-11-27T06:48:58.865Z,90150.56
2022-11-27T06:51:28.890Z,90149.31
2022-11-27T06:54:03.652Z,90156.78
2022-11-27T06:56:31.997Z,90161.75
2022-11-27T06:59:01.430Z,90156.94
2022-11-27T07:01:30.413Z,90157.66
2022-11-27T07:03:58.577Z,90158.63
2022-11-27T07:06:27.293Z,90154.84
2022-11-27T07:08:55.027Z,90154.84
2022-11-27T07:11:26.148Z,90161.63
2022-11-27T07:13:55.781Z,90154.44
2022-11-27T07:16:22.746Z,90155.91
2022-11-27T07:18:51.641Z,90162.06
2022-11-27T07:21:18.579Z,90161.53
2022-11-27T07:23:48.381Z,90152.72
2022-11-27T07:26:23.591Z,90161.94
2022-11-27T07:28:51.126Z,90155.94
2022-11-27T07:31:21.013Z,90156.97
2022-11-27T07:33:48.545Z,90159.59
2022-11-27T07:36:24.720Z,90152.91
2022-11-27T07:38:52.269Z,90157.03
2022-11-27T07:41:19.835Z,90149.75
2022-11-27T07:43:47.297Z,90152.31
2022-11-27T07:46:18.368Z,90167.63
2022-11-27T07:48:45.504Z,90151.66
2022-11-27T07:51:14.811Z,90153.56
2022-11-27T07:53:42.743Z,90150.19
2022-11-27T07:56:11.775Z,90157.47
2022-11-27T07:58:38.575Z,90154.72
2022-11-27T08:01:10.950Z,90153.88
2022-11-27T08:03:38.225Z,90156.94
2022-11-27T08:06:13.214Z,90158.06
2022-11-27T08:08:40.109Z,90152.75
2022-11-27T08:11:07.152Z,90157.13
2022-11-27T08:13:33.974Z,90145.50
2022-11-27T08:16:00.835Z,90149.19
2022-11-27T08:18:30.171Z,90153.09
2022-11-27T08:21:00.472Z,90149.28
2022-11-27T08:23:27.343Z,90142.31
2022-11-27T08:25:54.315Z,90151.38
2022-11-27T08:28:21.332Z,90143.78
2022-11-27T08:30:58.443Z,90136.28
2022-11-27T08:33:25.778Z,90136.06
2022-11-27T08:35:52.779Z,90142.53
2022-11-27T08:38:21.552Z,90116.44
2022-11-27T08:41:00.045Z,90125.13
2022-11-27T08:43:27.966Z,90127.53
2022-11-27T08:45:55.166Z,90130.00
2022-11-27T08:48:23.418Z,90117.84
2022-11-27T08:50:52.614Z,90110.28
2022-11-27T08:53:19.557Z,90104.97
2022-11-27T08:55:47.385Z,90110.22
2022-11-27T08:58:15.138Z,90106.44
2022-11-27T09:00:42.399Z,90112.22
2022-11-27T09:03:11.773Z,90101.56
2022-11-27T09:05:42.408Z,90096.09
2022-11-27T09:08:09.471Z,90098.47
2022-11-27T09:10:37.811Z,90104.31
2022-11-27T09:13:05.194Z,90089.84
2022-11-27T09:15:32.111Z,90088.16
2022-11-27T09:17:58.952Z,90079.25
2022-11-27T09:20:25.794Z,90071.25
2022-11-27T09:22:52.936Z,90075.59
2022-11-27T09:25:19.893Z,90061.97
2022-11-27T09:27:46.867Z,90062.28
2022-11-27T09:30:14.116Z,90068.03
2022-11-27T09:32:40.965Z,90055.56
2022-11-27T09:35:08.257Z,90053.81
2022-11-27T09:37:35.133Z,90051.19
2022-11-27T09:40:02.325Z,90048.16
2022-11-27T09:42:45.960Z,90055.09
2022-11-27T09:45:16.042Z,90053.59
2022-11-27T09:47:49.526Z,90050.25
2022-11-27T09:50:40.352Z,90045.09
2022-11-27T09:53:20.615Z,90050.63
2022-11-27T09:55:50.154Z,90038.28
2022-11-27T09:58:19.225Z,90040.34
2022-11-27T10:00:47.673Z,90037.56
2022-11-27T10:03:25.779Z,90037.13
2022-11-27T10:06:16.029Z,90035.34
2022-11-27T10:09:21.158Z,90034.47
2022-11-27T10:12:13.678Z,90028.84
2022-11-27T10:15:03.388Z,90029.16
2022-11-27T10:17:49.435Z,90030.31
2022-11-27T10:20:21.486Z,90025.91
2022-11-27T10:23:12.231Z,90022.81
2022-11-27T10:25:48.374Z,90021.34
2022-11-27T10:28:36.537Z,90027.81
2022-11-27T10:31:12.163Z,90025.91
2022-11-27T10:33:45.576Z,90018.19
2022-11-27T10:36:18.358Z,90009.56
2022-11-27T10:38:47.815Z,90013.78
2022-11-27T10:41:48.647Z,90014.34
2022-11-27T10:44:25.684Z,89997.81
2022-11-27T10:46:57.278Z,89997.72
2022-11-27T10:49:24.357Z,90000.75
2022-11-27T10:51:51.201Z,89993.84
2022-11-27T10:54:29.541Z,89982.78
2022-11-27T10:57:33.637Z,89982.75
2022-11-27T11:00:09.814Z,89990.44
2022-11-27T11:02:39.383Z,89991.00
2022-11-27T11:05:37.257Z,89980.63
2022-11-27T11:08:13.997Z,89977.16
2022-11-27T11:10:52.729Z,89978.31
2022-11-27T11:13:21.156Z,89976.13
2022-11-27T11:15:56.050Z,89973.66
2022-11-27T11:18:27.450Z,89969.41
2022-11-27T11:20:57.435Z,89959.16
2022-11-27T11:23:42.520Z,89971.13
2022-11-27T11:26:21.271Z,89967.13
2022-11-27T11:28:52.210Z,89963.41
2022-11-27T11:31:21.867Z,89959.44
2022-11-27T11:33:57.308Z,89956.78
2022-11-27T11:36:24.277Z,89960.47
2022-11-27T11:38:52.528Z,89956.84
2022-11-27T11:41:19.737Z,89957.31
2022-11-27T11:43:56.001Z,89957.13
2022-11-27T11:46:26.959Z,89959.66
2022-11-27T11:49:02.297Z,89960.72
2022-11-27T11:52:01.626Z,89952.09
2022-11-27T11:54:56.081Z,89948.63
2022-11-27T11:57:34.915Z,89948.91
2022-11-27T12:00:08.873Z,89946.91
2022-11-27T12:02:53.861Z,89956.06
2022-11-27T12:05:23.629Z,89945.44
2022-11-27T12:07:59.333Z,89949.06
2022-11-27T12:10:46.049Z,89949.09
2022-11-27T12:13:33.175Z,89949.66
2022-11-27T12:16:26.202Z,89948.72
2022-11-27T12:19:14.328Z,89945.53
2022-11-27T12:21:53.344Z,89944.44
2022-11-27T12:24:57.886Z,89933.69
2022-11-27T12:27:42.862Z,89936.28
2022-11-27T12:30:20.295Z,89930.06
2022-11-27T12:33:17.948Z,89936.41
2022-11-27T12:36:28.208Z,89923.06
2022-11-27T12:39:45.865Z,89924.69
2022-11-27T12:42:24.390Z,89923.56
2022-11-27T12:44:51.224Z,89933.69
2022-11-27T12:47:40.419Z,89934.75
2022-11-27T12:50:29.351Z,89929.59
2022-11-27T12:53:39.650Z,89931.84
2022-11-27T12:56:29.992Z,89941.72
2022-11-27T12:59:41.888Z,89933.78
2022-11-27T13:02:28.527Z,89932.91
2022-11-27T13:05:06.286Z,89936.56
2022-11-27T13:07:54.679Z,89938.31
2022-11-27T13:10:28.655Z,89938.56
2022-11-27T13:16:07.077Z,89947.22
2022-11-27T13:18:54.938Z,89950.34
2022-11-27T13:21:35.011Z,89941.94
2022-11-27T13:24:02.570Z,89935.47
2022-11-27T13:26:43.294Z,89948.44
2022-11-27T13:29:27.972Z,89947.09
2022-11-27T13:32:01.308Z,89946.34
2022-11-27T13:34:30.900Z,89941.22
2022-11-27T13:37:08.466Z,89945.16
2022-11-27T13:39:41.322Z,89952.22
2022-11-27T13:42:24.105Z,89951.06
2022-11-27T13:45:09.058Z,89946.91
2022-11-27T13:47:41.238Z,89951.59
2022-11-27T13:50:11.819Z,89945.38
2022-11-27T13:52:51.563Z,89945.09
2022-11-27T13:55:34.114Z,89946.81
2022-11-27T13:58:02.222Z,89933.88
2022-11-27T14:00:41.906Z,89944.59
2022-11-27T14:03:22.834Z,89940.69
2022-11-27T14:05:49.744Z,89937.72
2022-11-27T14:08:35.556Z,89943.44
2022-11-27T14:11:11.138Z,89949.63
2022-11-27T14:13:45.320Z,89939.75
2022-11-27T14:16:36.913Z,89935.28
2022-11-27T14:19:22.420Z,89928.72
2022-11-27T14:21:49.814Z,89938.97
2022-11-27T14:24:29.956Z,89936.31
2022-11-27T14:26:57.261Z,89940.88
2022-11-27T14:29:25.534Z,89932.91
2022-11-27T14:31:57.294Z,89933.59
2022-11-27T14:34:32.259Z,89936.97
2022-11-27T14:37:00.710Z,89939.69
2022-11-27T14:39:33.149Z,89948.13
2022-11-27T14:42:06.504Z,89940.09
2022-11-27T14:44:33.355Z,89940.81
2022-11-27T14:47:07.098Z,89939.34
2022-11-27T14:49:35.281Z,89939.06
2022-11-27T14:52:07.960Z,89937.00
2022-11-27T14:54:40.507Z,89927.97
2022-11-27T14:57:14.331Z,89942.44
2022-11-27T14:59:41.467Z,89934.22
2022-11-27T15:02:11.678Z,89934.03
2022-11-27T15:04:41.096Z,89942.63
2022-11-27T15:07:27.462Z,89942.56
2022-11-27T15:09:56.821Z,89944.28
2022-11-27T15:12:28.625Z,89937.47
2022-11-27T15:15:06.962Z,89930.94
2022-11-27T15:17:37.677Z,89947.31
2022-11-27T15:20:12.391Z,89940.97
2022-11-27T15:22:39.583Z,89938.88
2022-11-27T15:25:08.263Z,89935.41
2022-11-27T15:27:48.177Z,89944.63
2022-11-27T15:30:18.936Z,89936.28
2022-11-27T15:32:49.491Z,89928.88
2022-11-27T15:35:31.357Z,89926.06
2022-11-27T15:37:59.557Z,89932.81
2022-11-27T15:40:57.492Z,89925.75
2022-11-27T15:43:24.344Z,89929.88
2022-11-27T15:45:51.392Z,89933.25
2022-11-27T15:48:19.449Z,89933.38
2022-11-27T15:50:51.316Z,89939.16
2022-11-27T15:53:18.690Z,89937.59
2022-11-27T15:55:45.693Z,89943.19
2022-11-27T15:58:12.532Z,89936.34
2022-11-27T16:00:39.631Z,89943.63
2022-11-27T16:03:06.676Z,89950.81
2022-11-27T16:05:33.663Z,89947.22
2022-11-27T16:08:00.511Z,89940.34
2022-11-27T16:10:27.519Z,89948.78
2022-11-27T16:12:54.474Z,89953.41
2022-11-27T16:15:23.211Z,89948.34
2022-11-27T16:17:50.961Z,89945.09
2022-11-27T16:20:18.018Z,89962.81
2022-11-27T16:22:44.955Z,89946.66
2022-11-27T16:25:11.979Z,89961.22
2022-11-27T16:27:38.876Z,89947.09
2022-11-27T16:30:06.593Z,89941.19
2022-11-27T16:32:37.353Z,89948.56
2022-11-27T16:35:04.414Z,89942.56
2022-11-27T16:37:31.452Z,89947.59
2022-11-27T16:40:06.778Z,89931.50
2022-11-27T16:42:33.828Z,89949.84
2022-11-27T16:45:00.718Z,89926.63
2022-11-27T16:47:33.302Z,89936.97
2022-11-27T16:50:03.694Z,89939.19
2022-11-27T16:52:31.235Z,89946.25
2022-11-27T16:54:58.099Z,89938.66
2022-11-27T16:57:25.043Z,89933.69
2022-11-27T16:59:52.225Z,89941.19
2022-11-27T17:02:19.258Z,89940.31
2022-11-27T17:04:46.460Z,89944.66
2022-11-27T17:07:13.620Z,89947.31
2022-11-27T17:09:40.605Z,89939.59
2022-11-27T17:12:08.746Z,89940.75
2022-11-27T17:14:39.198Z,89931.25
2022-11-27T17:17:06.939Z,89935.38
2022-11-27T17:19:33.774Z,89952.22
2022-11-27T17:22:00.731Z,89944.94
2022-11-27T17:24:27.701Z,89956.22
2022-11-27T17:26:54.849Z,89928.28
2022-11-27T17:29:22.062Z,89939.34
2022-11-27T17:31:49.685Z,89940.94
2022-11-27T17:34:17.994Z,89942.53
2022-11-27T17:36:45.565Z,89943.56
2022-11-27T17:39:14.245Z,89938.00
2022-11-27T17:41:42.347Z,89947.25
2022-11-27T17:44:09.473Z,89934.81
2022-11-27T17:46:36.564Z,89942.06
2022-11-27T17:49:06.065Z,89930.81
2022-11-27T17:51:34.527Z,89919.75
2022-11-27T17:54:02.807Z,89926.38
2022-11-27T17:56:30.230Z,89928.69
2022-11-27T17:58:57.162Z,89921.41
2022-11-27T18:01:26.911Z,89927.09
2022-11-27T18:03:58.672Z,89918.88
2022-11-27T18:06:25.515Z,89919.81
2022-11-27T18:08:52.984Z,89924.69
2022-11-27T18:11:25.048Z,89931.22
2022-11-27T18:13:52.058Z,89928.69
2022-11-27T18:16:22.299Z,89924.25
2022-11-27T18:18:49.356Z,89928.13
2022-11-27T18:21:19.188Z,89919.19
2022-11-27T18:24:20.733Z,89921.53
2022-11-27T18:29:25.030Z,89905.28
2022-11-27T18:31:52.085Z,89920.91
2022-11-27T18:34:19.231Z,89921.09
2022-11-27T18:36:46.155Z,89922.56
2022-11-27T18:39:13.670Z,89915.19
2022-11-27T18:41:40.511Z,89911.91
2022-11-27T18:44:07.524Z,89919.91
2022-11-27T18:46:34.330Z,89924.03
2022-11-27T18:49:01.353Z,89924.09
2022-11-27T18:51:28.415Z,89920.69
2022-11-27T18:53:55.524Z,89921.59
2022-11-27T18:56:27.821Z,89920.56
2022-11-27T18:58:54.816Z,89920.94
2022-11-27T19:01:26.002Z,89928.31
2022-11-27T19:03:53.393Z,89929.53
2022-11-27T19:06:23.185Z,89921.31
2022-11-27T19:08:50.012Z,89922.69
2022-11-27T19:11:22.354Z,89920.22
2022-11-27T19:13:50.357Z,89924.09
2022-11-27T19:16:25.177Z,89919.75
2022-11-27T19:18:52.741Z,89926.47
2022-11-27T19:23:50.318Z,89920.47
2022-11-27T19:26:23.426Z,89925.75
2022-11-27T19:28:51.869Z,89927.88
2022-11-27T19:31:19.536Z,89924.94
2022-11-27T19:33:51.948Z,89931.69
2022-11-27T19:36:18.997Z,89932.00
2022-11-27T19:38:45.890Z,89937.09
2022-11-27T19:41:15.997Z,89932.22
2022-11-27T19:43:43.504Z,89924.72
2022-11-27T19:46:17.692Z,89924.94
2022-11-27T19:48:45.335Z,89921.47
2022-11-27T19:51:13.140Z,89927.38
2022-11-27T19:53:40.443Z,89919.28
2022-11-27T19:56:07.900Z,89919.66
2022-11-27T19:58:35.180Z,89923.28
2022-11-27T20:01:07.347Z,89913.75
2022-11-27T20:03:34.313Z,89926.50
2022-11-27T20:06:07.095Z,89916.72
2022-11-27T20:08:34.709Z,89914.94
2022-11-27T20:11:02.018Z,89912.31
2022-11-27T20:13:28.809Z,89922.19
2022-11-27T20:15:55.584Z,89917.41
2022-11-27T20:18:23.266Z,89916.09
2022-11-27T20:20:50.386Z,89912.16
2022-11-27T20:23:17.221Z,89914.00
2022-11-27T20:25:44.262Z,89914.94
2022-11-27T20:28:11.075Z,89913.47
2022-11-27T20:30:37.881Z,89910.28
2022-11-27T20:33:07.707Z,89915.06
2022-11-27T20:35:34.901Z,89916.38
2022-11-27T20:38:01.636Z,89913.63
2022-11-27T20:40:30.461Z,89912.84
2022-11-27T20:42:58.625Z,89912.31
2022-11-27T20:45:25.590Z,89909.19
2022-11-27T20:47:52.734Z,89914.28
2022-11-27T20:50:19.520Z,89920.88
2022-11-27T20:52:52.205Z,89922.25
2022-11-27T20:55:19.069Z,89916.19
2022-11-27T20:57:52.032Z,89908.03
2022-11-27T21:00:30.181Z,89905.59
2022-11-27T21:02:57.086Z,89908.91
2022-11-27T21:05:24.006Z,89905.59
2022-11-27T21:07:50.852Z,89912.75
2022-11-27T21:10:18.064Z,89911.63
2022-11-27T21:12:44.974Z,89911.72
2022-11-27T21:15:12.118Z,89910.66
2022-11-27T21:17:38.949Z,89907.34
2022-11-27T21:20:06.638Z,89903.34
2022-11-27T21:22:33.709Z,89900.91
2022-11-27T21:25:00.649Z,89899.41
2022-11-27T21:27:28.932Z,89896.38
2022-11-27T21:29:55.838Z,89903.09
2022-11-27T21:32:22.894Z,89905.97
2022-11-27T21:34:49.748Z,89895.22
2022-11-27T21:37:17.076Z,89897.22
2022-11-27T21:39:43.901Z,89894.78
2022-11-27T21:42:10.881Z,89888.31
2022-11-27T21:44:37.860Z,89897.81
2022-11-27T21:47:04.704Z,89900.31
2022-11-27T21:49:31.754Z,89888.78
2022-11-27T21:51:58.651Z,89883.53
2022-11-27T21:54:25.521Z,89886.59
2022-11-27T21:56:52.826Z,89882.47
2022-11-27T21:59:19.917Z,89879.94
2022-11-27T22:01:46.959Z,89889.16
2022-11-27T22:04:14.183Z,89881.75
2022-11-27T22:06:42.493Z,89889.34
2022-11-27T22:09:14.973Z,89887.50
2022-11-27T22:11:42.633Z,89879.94
2022-11-27T22:14:09.953Z,89880.97
2022-11-27T22:16:44.435Z,89876.00
2022-11-27T22:19:12.152Z,89868.13
2022-11-27T22:21:38.926Z,89879.81
2022-11-27T22:24:06.060Z,89871.50
2022-11-27T22:26:33.010Z,89870.28
2022-11-27T22:28:59.844Z,89872.09
2022-11-27T22:31:29.183Z,89866.88
2022-11-27T22:33:57.128Z,89864.03
2022-11-27T22:36:29.694Z,89864.03
2022-11-27T22:38:57.358Z,89858.69
2022-11-27T22:41:26.821Z,89856.00
2022-11-27T22:43:54.004Z,89856.72
2022-11-27T22:46:24.844Z,89854.69
2022-11-27T22:48:55.970Z,89856.06
2022-11-27T22:51:24.474Z,89858.31
2022-11-27T22:53:51.520Z,89853.78
2022-11-27T22:56:18.810Z,89869.22
2022-11-27T22:58:45.758Z,89855.00
2022-11-27T23:01:22.093Z,89862.06
2022-11-27T23:03:49.120Z,89852.94
2022-11-27T23:06:17.589Z,89847.94
2022-11-27T23:08:45.983Z,89834.59
2022-11-27T23:11:22.228Z,89851.88
2022-11-27T23:13:50.072Z,89829.53
2022-11-27T23:16:18.097Z,89848.84
2022-11-27T23:18:45.127Z,89843.50
2022-11-27T23:21:18.293Z,89840.88
2022-11-27T23:23:45.905Z,89843.59
2022-11-27T23:26:18.571Z,89837.09
2022-11-27T23:28:47.197Z,89844.56
2022-11-27T23:31:36.636Z,89841.38
2022-11-27T23:34:07.873Z,89841.53
2022-11-27T23:36:35.693Z,89840.88
2022-11-27T23:39:04.958Z,89837.09
2022-11-27T23:41:32.141Z,89839.72
2022-11-27T23:43:59.144Z,89839.56
2022-11-27T23:46:28.888Z,89848.19
2022-11-27T23:48:57.744Z,89845.06
2022-11-27T23:51:27.049Z,89846.88
2022-11-27T23:53:54.027Z,89850.75
2022-11-27T23:56:26.952Z,89856.63
2022-11-27T23:58:55.058Z,89846.22
